createdAt,value
2022-09-12T00:01:15.261Z,100106.41
2022-09-12T00:03:44.674Z,100116.81
2022-09-12T00:06:20.417Z,100110.38
2022-09-12T00:08:50.523Z,100098.19
2022-09-12T00:11:18.772Z,100096.38
2022-09-12T00:13:46.690Z,100091.50
2022-09-12T00:16:19.153Z,100089.44
2022-09-12T00:18:48.881Z,100080.16
2022-09-12T00:21:17.909Z,100074.28
2022-09-12T00:23:46.282Z,100073.19
2022-09-12T00:26:14.770Z,100093.88
2022-09-12T00:28:43.191Z,100076.69
2022-09-12T00:31:14.163Z,100083.34
2022-09-12T00:33:42.902Z,100085.63
2022-09-12T00:36:15.433Z,100089.34
2022-09-12T00:38:43.644Z,100080.34
2022-09-12T00:41:17.269Z,100069.81
2022-09-12T00:43:47.924Z,100073.44
2022-09-12T00:46:27.353Z,100081.75
2022-09-12T00:49:04.315Z,100083.25
2022-09-12T00:51:37.837Z,100083.88
2022-09-12T00:54:11.748Z,100078.75
2022-09-12T00:56:42.888Z,100087.72
2022-09-12T00:59:15.190Z,100088.94
2022-09-12T01:01:44.264Z,100090.28
2022-09-12T01:04:13.666Z,100081.19
2022-09-12T01:06:45.121Z,100064.16
2022-09-12T01:09:18.350Z,100085.16
2022-09-12T01:11:48.686Z,100083.44
2022-09-12T01:14:18.467Z,100085.63
2022-09-12T01:16:48.483Z,100079.84
2022-09-12T01:19:36.721Z,100084.50
2022-09-12T01:22:22.687Z,100060.44
2022-09-12T01:25:00.367Z,100078.09
2022-09-12T01:27:45.257Z,100064.44
2022-09-12T01:30:42.844Z,100064.59
2022-09-12T01:33:26.570Z,100078.72
2022-09-12T01:36:09.483Z,100081.44
2022-09-12T01:38:41.025Z,100090.66
2022-09-12T01:41:17.931Z,100092.03
2022-09-12T01:43:52.294Z,100087.75
2022-09-12T01:46:25.849Z,100090.75
2022-09-12T01:48:58.991Z,100082.88
2022-09-12T01:51:32.485Z,100086.13
2022-09-12T01:54:07.051Z,100079.38
2022-09-12T01:56:37.902Z,100082.13
2022-09-12T01:59:10.669Z,100082.03
2022-09-12T02:01:45.707Z,100092.03
2022-09-12T02:04:19.829Z,100089.50
2022-09-12T02:06:50.481Z,100082.88
2022-09-12T02:09:24.088Z,100073.19
2022-09-12T02:11:58.126Z,100078.06
2022-09-12T02:14:30.205Z,100085.19
2022-09-12T02:17:01.489Z,100080.81
2022-09-12T02:19:35.499Z,100073.03
2022-09-12T02:22:06.046Z,100064.66
2022-09-12T02:24:38.000Z,100069.63
2022-09-12T02:27:11.899Z,100074.53
2022-09-12T02:29:39.963Z,100077.91
2022-09-12T02:32:15.684Z,100068.41
2022-09-12T02:34:50.918Z,100055.38
2022-09-12T02:37:27.270Z,100056.44
2022-09-12T02:39:57.243Z,100059.81
2022-09-12T02:42:25.645Z,100055.59
2022-09-12T02:44:57.209Z,100047.81
2022-09-12T02:47:30.090Z,100047.44
2022-09-12T02:50:00.900Z,100053.88
2022-09-12T02:52:30.045Z,100055.88
2022-09-12T02:54:59.431Z,100067.88
2022-09-12T02:57:27.688Z,100057.44
2022-09-12T02:59:59.286Z,100069.53
2022-09-12T03:02:36.822Z,100065.91
2022-09-12T03:05:19.765Z,100067.28
2022-09-12T03:08:04.844Z,100068.78
2022-09-12T03:10:41.854Z,100064.97
2022-09-12T03:13:21.780Z,100070.44
2022-09-12T03:16:02.049Z,100075.84
2022-09-12T03:18:43.470Z,100068.78
2022-09-12T03:21:19.312Z,100073.22
2022-09-12T03:23:59.949Z,100078.31
2022-09-12T03:26:33.726Z,100078.00
2022-09-12T03:29:03.258Z,100086.47
2022-09-12T03:31:31.847Z,100076.63
2022-09-12T03:34:00.947Z,100085.41
2022-09-12T03:36:31.580Z,100074.81
2022-09-12T03:38:59.469Z,100080.78
2022-09-12T03:41:27.454Z,100074.22
2022-09-12T03:43:57.049Z,100082.47
2022-09-12T03:46:24.994Z,100080.22
2022-09-12T03:48:52.935Z,100082.06
2022-09-12T03:51:20.970Z,100094.44
2022-09-12T03:53:50.329Z,100082.47
2022-09-12T03:56:19.462Z,100097.94
2022-09-12T03:58:47.963Z,100098.22
2022-09-12T04:01:17.931Z,100097.25
2022-09-12T04:03:47.609Z,100102.66
2022-09-12T04:06:17.954Z,100099.44
2022-09-12T04:08:49.032Z,100097.72
2022-09-12T04:11:19.789Z,100102.69
2022-09-12T04:13:48.658Z,100106.78
2022-09-12T04:16:17.872Z,100105.81
2022-09-12T04:18:46.667Z,100114.34
2022-09-12T04:21:17.142Z,100108.75
2022-09-12T04:23:45.434Z,100103.34
2022-09-12T04:26:13.944Z,100119.22
2022-09-12T04:28:43.492Z,100124.44
2022-09-12T04:31:15.717Z,100122.25
2022-09-12T04:33:43.713Z,100137.72
2022-09-12T04:36:14.511Z,100138.56
2022-09-12T04:38:42.415Z,100148.44
2022-09-12T04:41:14.573Z,100143.44
2022-09-12T04:43:46.448Z,100141.78
2022-09-12T04:46:16.753Z,100161.38
2022-09-12T04:48:44.886Z,100162.88
2022-09-12T04:51:14.617Z,100158.06
2022-09-12T04:53:43.222Z,100158.03
2022-09-12T04:56:12.753Z,100158.97
2022-09-12T04:58:40.672Z,100157.66
2022-09-12T05:01:12.254Z,100158.03
2022-09-12T05:03:43.479Z,100166.03
2022-09-12T05:06:13.708Z,100159.84
2022-09-12T05:08:41.798Z,100163.63
2022-09-12T05:11:13.488Z,100171.91
2022-09-12T05:13:41.890Z,100155.47
2022-09-12T05:16:12.753Z,100165.28
2022-09-12T05:18:40.717Z,100164.06
2022-09-12T05:21:10.484Z,100157.59
2022-09-12T05:23:38.468Z,100158.72
2022-09-12T05:26:08.183Z,100165.09
2022-09-12T05:28:37.863Z,100172.91
2022-09-12T05:31:07.539Z,100170.59
2022-09-12T05:33:38.230Z,100167.09
2022-09-12T05:36:08.453Z,100154.94
2022-09-12T05:38:36.665Z,100166.75
2022-09-12T05:41:06.338Z,100175.16
2022-09-12T05:43:34.870Z,100161.72
2022-09-12T05:46:03.836Z,100172.16
2022-09-12T05:48:32.772Z,100170.91
2022-09-12T05:51:03.666Z,100166.34
2022-09-12T05:53:32.559Z,100177.59
2022-09-12T05:56:07.482Z,100174.09
2022-09-12T05:58:36.328Z,100177.41
2022-09-12T06:01:05.830Z,100177.94
2022-09-12T06:03:33.778Z,100181.75
2022-09-12T06:06:07.828Z,100175.84
2022-09-12T06:08:36.566Z,100179.94
2022-09-12T06:11:07.031Z,100171.72
2022-09-12T06:13:37.775Z,100177.47
2022-09-12T06:16:06.789Z,100177.47
2022-09-12T06:18:35.608Z,100161.31
2022-09-12T06:21:04.922Z,100167.53
2022-09-12T06:23:34.633Z,100173.63
2022-09-12T06:26:03.323Z,100180.34
2022-09-12T06:28:31.939Z,100180.66
2022-09-12T06:31:05.655Z,100175.41
2022-09-12T06:33:34.705Z,100183.31
2022-09-12T06:36:11.542Z,100179.41
2022-09-12T06:38:42.058Z,100177.53
2022-09-12T06:41:12.564Z,100176.09
2022-09-12T06:43:41.184Z,100178.66
2022-09-12T06:46:09.782Z,100174.03
2022-09-12T06:48:41.710Z,100178.53
2022-09-12T06:51:13.478Z,100178.31
2022-09-12T06:53:44.780Z,100172.41
2022-09-12T06:56:14.689Z,100170.06
2022-09-12T06:58:43.505Z,100164.78
2022-09-12T07:01:13.754Z,100174.75
2022-09-12T07:03:42.351Z,100165.91
2022-09-12T07:06:13.204Z,100158.88
2022-09-12T07:08:42.626Z,100164.66
2022-09-12T07:11:13.423Z,100169.31
2022-09-12T07:13:42.550Z,100177.16
2022-09-12T07:16:14.858Z,100173.69
2022-09-12T07:18:46.758Z,100165.59
2022-09-12T07:21:16.087Z,100162.84
2022-09-12T07:23:45.753Z,100166.63
2022-09-12T07:26:15.543Z,100171.66
2022-09-12T07:28:44.353Z,100171.94
2022-09-12T07:31:14.179Z,100179.50
2022-09-12T07:33:43.194Z,100172.47
2022-09-12T07:36:13.694Z,100180.72
2022-09-12T07:38:42.054Z,100174.44
2022-09-12T07:41:15.778Z,100174.72
2022-09-12T07:43:43.702Z,100173.34
2022-09-12T07:46:11.730Z,100175.75
2022-09-12T07:48:41.075Z,100174.25
2022-09-12T07:51:11.619Z,100163.94
2022-09-12T07:53:41.198Z,100170.09
2022-09-12T07:56:11.310Z,100176.09
2022-09-12T07:58:42.220Z,100170.63
2022-09-12T08:01:13.520Z,100167.16
2022-09-12T08:03:42.272Z,100165.84
2022-09-12T08:06:12.188Z,100160.81
2022-09-12T08:08:40.239Z,100155.00
2022-09-12T08:11:09.872Z,100166.47
2022-09-12T08:13:41.400Z,100160.06
2022-09-12T08:16:13.183Z,100151.69
2022-09-12T08:18:41.729Z,100160.84
2022-09-12T08:21:14.107Z,100155.91
2022-09-12T08:23:42.568Z,100160.78
2022-09-12T08:26:11.346Z,100147.03
2022-09-12T08:28:41.855Z,100152.38
2022-09-12T08:31:13.759Z,100160.59
2022-09-12T08:33:41.888Z,100152.63
2022-09-12T08:36:12.882Z,100124.38
2022-09-12T08:38:42.522Z,100143.72
2022-09-12T08:41:15.394Z,100131.03
2022-09-12T08:44:10.050Z,100127.41
2022-09-12T08:46:45.958Z,100128.03
2022-09-12T08:49:21.229Z,100124.94
2022-09-12T08:51:49.222Z,100121.38
2022-09-12T08:54:25.231Z,100121.50
2022-09-12T08:56:56.571Z,100118.41
2022-09-12T08:59:26.205Z,100114.59
2022-09-12T09:01:58.954Z,100117.91
2022-09-12T09:04:43.992Z,100114.84
2022-09-12T09:07:34.789Z,100108.06
2022-09-12T09:10:14.866Z,100099.47
2022-09-12T09:12:54.658Z,100103.56
2022-09-12T09:15:48.700Z,100087.41
2022-09-12T09:18:22.768Z,100089.47
2022-09-12T09:20:54.310Z,100088.03
2022-09-12T09:23:27.285Z,100092.72
2022-09-12T09:26:00.252Z,100090.06
2022-09-12T09:28:37.626Z,100083.09
2022-09-12T09:31:15.627Z,100079.00
2022-09-12T09:33:44.907Z,100083.91
2022-09-12T09:36:22.499Z,100078.38
2022-09-12T09:38:56.250Z,100073.41
2022-09-12T09:41:36.598Z,100069.75
2022-09-12T09:44:05.217Z,100079.38
2022-09-12T09:46:34.854Z,100077.06
2022-09-12T09:49:04.429Z,100075.63
2022-09-12T09:51:36.197Z,100074.81
2022-09-12T09:54:12.301Z,100073.75
2022-09-12T09:56:42.639Z,100078.47
2022-09-12T09:59:12.921Z,100067.63
2022-09-12T10:01:48.047Z,100080.59
2022-09-12T10:04:21.204Z,100076.28
2022-09-12T10:06:52.218Z,100072.13
2022-09-12T10:09:26.073Z,100065.84
2022-09-12T10:11:55.466Z,100071.13
2022-09-12T10:14:41.614Z,100076.50
2022-09-12T10:17:43.254Z,100075.19
2022-09-12T10:20:31.759Z,100058.59
2022-09-12T10:23:02.056Z,100069.81
2022-09-12T10:25:30.479Z,100067.41
2022-09-12T10:28:01.189Z,100068.22
2022-09-12T10:30:29.987Z,100065.84
2022-09-12T10:33:07.646Z,100065.03
2022-09-12T10:35:46.941Z,100068.75
2022-09-12T10:38:22.536Z,100061.13
2022-09-12T10:40:59.343Z,100059.41
2022-09-12T10:43:36.212Z,100050.13
2022-09-12T10:46:23.892Z,100060.34
2022-09-12T10:49:13.512Z,100058.91
2022-09-12T10:51:41.532Z,100065.47
2022-09-12T10:54:13.638Z,100040.69
2022-09-12T10:56:53.515Z,100062.84
2022-09-12T10:59:32.422Z,100055.22
2022-09-12T11:02:02.915Z,100066.31
2022-09-12T11:04:47.577Z,100054.81
2022-09-12T11:07:30.555Z,100064.19
2022-09-12T11:10:07.177Z,100058.00
2022-09-12T11:12:41.893Z,100061.31
2022-09-12T11:15:30.069Z,100055.53
2022-09-12T11:18:06.745Z,100056.00
2022-09-12T11:20:55.005Z,100054.38
2022-09-12T11:24:11.345Z,100055.88
2022-09-12T11:26:51.892Z,100045.22
2022-09-12T11:29:30.514Z,100043.38
2022-09-12T11:32:12.226Z,100041.97
2022-09-12T11:34:53.492Z,100025.16
2022-09-12T11:37:36.131Z,100041.75
2022-09-12T11:40:16.456Z,100037.63
2022-09-12T11:42:46.981Z,100034.19
2022-09-12T11:45:20.869Z,100032.34
2022-09-12T11:47:55.140Z,100036.44
2022-09-12T11:50:29.848Z,100033.34
2022-09-12T11:53:04.448Z,100029.28
2022-09-12T11:55:48.337Z,100022.88
2022-09-12T11:58:18.168Z,100020.63
2022-09-12T12:00:52.006Z,100018.41
2022-09-12T12:03:33.353Z,100012.25
2022-09-12T12:06:05.869Z,99998.72
2022-09-12T12:08:40.589Z,100004.69
2022-09-12T12:11:10.027Z,100014.94
2022-09-12T12:13:41.104Z,100011.66
2022-09-12T12:16:15.173Z,99998.38
2022-09-12T12:18:44.527Z,99996.69
2022-09-12T12:21:36.333Z,100005.31
2022-09-12T12:24:17.804Z,99997.97
2022-09-12T12:26:57.451Z,99997.34
2022-09-12T12:29:44.593Z,100006.09
2022-09-12T12:32:28.509Z,100000.13
2022-09-12T12:35:39.070Z,99988.91
2022-09-12T12:38:28.459Z,99992.38
2022-09-12T12:41:32.566Z,99978.69
2022-09-12T12:44:20.281Z,99985.03
2022-09-12T12:47:15.798Z,99988.06
2022-09-12T12:49:43.809Z,99988.50
2022-09-12T12:52:18.082Z,99988.50
2022-09-12T12:54:57.530Z,99973.16
2022-09-12T12:57:52.168Z,99976.22
2022-09-12T13:00:35.433Z,99977.47
2022-09-12T13:03:12.474Z,99985.06
2022-09-12T13:05:43.729Z,99969.91
2022-09-12T13:08:13.259Z,99981.13
2022-09-12T13:10:51.612Z,99980.34
2022-09-12T13:13:26.800Z,99985.22
2022-09-12T13:15:55.377Z,99979.94
2022-09-12T13:18:30.274Z,99979.09
2022-09-12T13:21:09.036Z,99988.13
2022-09-12T13:23:37.184Z,99981.16
2022-09-12T13:26:12.662Z,99981.75
2022-09-12T13:28:42.039Z,99989.94
2022-09-12T13:31:19.069Z,99989.72
2022-09-12T13:33:49.509Z,99983.28
2022-09-12T13:36:42.479Z,99978.06
2022-09-12T13:39:20.304Z,99980.31
2022-09-12T13:42:17.924Z,99984.72
2022-09-12T13:44:50.867Z,99982.47
2022-09-12T13:47:25.978Z,99982.38
2022-09-12T13:49:55.380Z,99962.59
2022-09-12T13:52:26.846Z,99983.88
2022-09-12T13:54:58.286Z,99985.28
2022-09-12T13:57:32.322Z,99984.38
2022-09-12T14:00:04.412Z,99973.63
2022-09-12T14:02:37.850Z,99989.53
2022-09-12T14:05:20.163Z,99989.63
2022-09-12T14:07:57.304Z,99985.09
2022-09-12T14:10:31.955Z,99982.69
2022-09-12T14:13:01.688Z,99987.81
2022-09-12T14:15:33.442Z,99983.69
2022-09-12T14:18:03.773Z,99985.47
2022-09-12T14:20:33.442Z,99975.56
2022-09-12T14:23:03.630Z,99988.81
2022-09-12T14:25:39.119Z,99980.31
2022-09-12T14:28:07.806Z,99984.13
2022-09-12T14:30:38.249Z,99983.00
2022-09-12T14:33:20.885Z,99968.63
2022-09-12T14:35:51.621Z,99986.31
2022-09-12T14:38:25.666Z,99985.22
2022-09-12T14:41:00.878Z,99983.66
2022-09-12T14:43:30.867Z,99985.22
2022-09-12T14:46:02.663Z,99976.88
2022-09-12T14:48:33.408Z,99978.97
2022-09-12T14:51:01.509Z,99966.41
2022-09-12T14:53:34.900Z,99955.50
2022-09-12T14:56:12.531Z,99975.06
2022-09-12T14:58:41.567Z,99973.50
2022-09-12T15:01:31.679Z,99973.91
2022-09-12T15:03:59.678Z,99976.88
2022-09-12T15:06:30.833Z,99974.69
2022-09-12T15:09:00.443Z,99975.03
2022-09-12T15:11:28.379Z,99973.91
2022-09-12T15:13:56.493Z,99964.81
2022-09-12T15:16:24.490Z,99965.47
2022-09-12T15:18:53.792Z,99965.81
2022-09-12T15:21:22.334Z,99996.13
2022-09-12T15:23:51.450Z,99994.66
2022-09-12T15:26:21.862Z,100011.84
2022-09-12T15:28:52.111Z,100015.97
2022-09-12T15:31:26.226Z,100025.72
2022-09-12T15:33:57.107Z,100022.19
2022-09-12T15:36:25.928Z,100034.47
2022-09-12T15:38:54.486Z,100019.41
2022-09-12T15:41:24.427Z,100025.38
2022-09-12T15:43:52.759Z,100019.25
2022-09-12T15:46:21.448Z,100012.66
2022-09-12T15:48:50.444Z,100021.38
2022-09-12T15:51:21.634Z,100020.94
2022-09-12T15:53:50.622Z,100028.78
2022-09-12T15:56:21.161Z,100035.38
2022-09-12T15:58:58.905Z,100033.38
2022-09-12T16:01:28.390Z,100030.53
2022-09-12T16:03:56.583Z,100027.94
2022-09-12T16:06:25.965Z,100041.59
2022-09-12T16:08:53.914Z,100035.97
2022-09-12T16:11:24.339Z,100032.38
2022-09-12T16:13:53.896Z,100039.13
2022-09-12T16:16:22.193Z,100039.81
2022-09-12T16:18:50.290Z,100037.00
2022-09-12T16:21:18.328Z,100048.50
2022-09-12T16:23:49.074Z,100045.59
2022-09-12T16:26:17.869Z,100049.56
2022-09-12T16:28:46.101Z,100049.25
2022-09-12T16:31:15.185Z,100050.06
2022-09-12T16:33:43.194Z,100048.63
2022-09-12T16:36:12.587Z,100051.88
2022-09-12T16:38:44.010Z,100056.53
2022-09-12T16:41:14.466Z,100057.66
2022-09-12T16:43:43.060Z,100056.72
2022-09-12T16:46:13.218Z,100052.81
2022-09-12T16:48:48.062Z,100058.75
2022-09-12T16:51:20.891Z,100064.69
2022-09-12T16:53:49.772Z,100058.97
2022-09-12T16:56:19.468Z,100059.78
2022-09-12T16:58:47.798Z,100076.66
2022-09-12T17:01:17.723Z,100089.06
2022-09-12T17:03:46.230Z,100082.75
2022-09-12T17:06:16.546Z,100077.47
2022-09-12T17:08:46.260Z,100082.75
2022-09-12T17:11:17.221Z,100086.75
2022-09-12T17:14:06.654Z,100080.16
2022-09-12T17:16:37.143Z,100090.72
2022-09-12T17:19:06.024Z,100103.25
2022-09-12T17:21:34.390Z,100118.59
2022-09-12T17:24:02.579Z,100134.28
2022-09-12T17:26:30.621Z,100149.09
2022-09-12T17:28:59.950Z,100152.06
2022-09-12T17:31:28.003Z,100146.28
2022-09-12T17:33:58.358Z,100160.97
2022-09-12T17:36:26.746Z,100153.22
2022-09-12T17:38:55.370Z,100153.69
2022-09-12T17:41:25.616Z,100156.31
2022-09-12T17:43:57.419Z,100154.34
2022-09-12T17:46:31.838Z,100148.31
2022-09-12T17:49:01.052Z,100153.44
2022-09-12T17:51:30.847Z,100159.56
2022-09-12T17:54:01.195Z,100163.88
2022-09-12T17:56:30.837Z,100177.09
2022-09-12T17:59:00.237Z,100171.13
2022-09-12T18:01:47.930Z,100166.72
2022-09-12T18:04:16.591Z,100151.53
2022-09-12T18:06:48.184Z,100156.03
2022-09-12T18:09:18.060Z,100147.97
2022-09-12T18:11:46.340Z,100153.56
2022-09-12T18:14:14.717Z,100162.81
2022-09-12T18:16:44.332Z,100162.00
2022-09-12T18:19:12.662Z,100163.97
2022-09-12T18:21:41.208Z,100178.94
2022-09-12T18:24:10.866Z,100170.03
2022-09-12T18:26:39.202Z,100139.00
2022-09-12T18:29:07.845Z,100161.47
2022-09-12T18:31:36.047Z,100153.41
2022-09-12T18:34:06.302Z,100142.88
2022-09-12T18:36:34.308Z,100154.72
2022-09-12T18:39:02.265Z,100152.91
2022-09-12T18:41:30.188Z,100150.59
2022-09-12T18:43:59.784Z,100154.56
2022-09-12T18:46:29.037Z,100157.47
2022-09-12T18:48:59.722Z,100154.34
2022-09-12T18:51:31.625Z,100150.00
2022-09-12T18:54:01.494Z,100154.66
2022-09-12T18:56:33.015Z,100119.84
2022-09-12T18:59:01.896Z,100150.91
2022-09-12T19:01:31.715Z,100157.63
2022-09-12T19:04:01.008Z,100163.88
2022-09-12T19:06:32.224Z,100160.59
2022-09-12T19:09:05.130Z,100164.22
2022-09-12T19:11:35.739Z,100165.03
2022-09-12T19:14:03.675Z,100163.69
2022-09-12T19:16:31.605Z,100166.63
2022-09-12T19:19:00.145Z,100169.78
2022-09-12T19:21:31.350Z,100170.94
2022-09-12T19:24:02.225Z,100170.09
2022-09-12T19:26:30.864Z,100178.84
2022-09-12T19:28:59.458Z,100164.97
2022-09-12T19:31:27.860Z,100178.16
2022-09-12T19:34:01.096Z,100173.53
2022-09-12T19:36:47.273Z,100180.16
2022-09-12T19:39:16.961Z,100191.28
2022-09-12T19:41:45.651Z,100191.41
2022-09-12T19:44:13.888Z,100197.56
2022-09-12T19:46:41.924Z,100207.22
2022-09-12T19:49:11.418Z,100195.59
2022-09-12T19:51:41.050Z,100195.66
2022-09-12T19:54:09.262Z,100186.28
2022-09-12T19:56:37.301Z,100194.69
2022-09-12T19:59:05.254Z,100189.72
2022-09-12T20:01:33.292Z,100195.34
2022-09-12T20:04:01.245Z,100162.13
2022-09-12T20:06:29.365Z,100193.56
2022-09-12T20:08:59.152Z,100201.53
2022-09-12T20:11:27.172Z,100202.06
2022-09-12T20:13:55.226Z,100207.69
2022-09-12T20:16:25.819Z,100208.47
2022-09-12T20:18:55.612Z,100211.44
2022-09-12T20:21:31.373Z,100208.13
2022-09-12T20:24:06.833Z,100204.06
2022-09-12T20:26:35.119Z,100211.44
2022-09-12T20:29:03.746Z,100216.72
2022-09-12T20:31:32.120Z,100228.72
2022-09-12T20:34:00.751Z,100225.56
2022-09-12T20:36:29.039Z,100224.19
2022-09-12T20:39:00.162Z,100228.78
2022-09-12T20:41:31.710Z,100228.78
2022-09-12T20:44:00.092Z,100235.16
2022-09-12T20:46:29.601Z,100235.31
2022-09-12T20:48:58.599Z,100239.75
2022-09-12T20:51:29.646Z,100239.75
2022-09-12T20:53:58.567Z,100240.88
2022-09-12T20:56:27.687Z,100246.53
2022-09-12T20:58:57.494Z,100244.25
2022-09-12T21:01:27.102Z,100244.63
2022-09-12T21:03:55.310Z,100240.78
2022-09-12T21:06:23.984Z,100245.06
2022-09-12T21:08:52.177Z,100233.81
2022-09-12T21:11:21.326Z,100197.22
2022-09-12T21:13:49.440Z,100237.75
2022-09-12T21:16:21.102Z,100243.19
2022-09-12T21:18:54.029Z,100256.69
2022-09-12T21:21:22.318Z,100247.34
2022-09-12T21:23:50.861Z,100240.75
2022-09-12T21:26:19.401Z,100237.16
2022-09-12T21:28:47.518Z,100253.56
2022-09-12T21:32:14.053Z,100258.44
2022-09-12T21:34:43.639Z,100258.75
2022-09-12T21:37:11.438Z,100264.84
2022-09-12T21:39:39.347Z,100230.00
2022-09-12T21:42:07.395Z,100261.53
2022-09-12T21:44:35.311Z,100264.31
2022-09-12T21:47:03.141Z,100266.94
2022-09-12T21:49:31.010Z,100259.06
2022-09-12T21:52:00.247Z,100248.59
2022-09-12T21:54:28.023Z,100268.63
2022-09-12T21:56:55.918Z,100271.38
2022-09-12T21:59:23.688Z,100267.41
2022-09-12T22:01:51.518Z,100276.25
2022-09-12T22:04:19.282Z,100279.00
2022-09-12T22:06:47.031Z,100275.97
2022-09-12T22:09:16.935Z,100283.44
2022-09-12T22:11:45.080Z,100280.97
2022-09-12T22:14:12.848Z,100279.03
2022-09-12T22:16:40.591Z,100275.75
2022-09-12T22:19:08.497Z,100291.47
2022-09-12T22:21:56.199Z,100291.06
2022-09-12T22:24:29.942Z,100286.78
2022-09-12T22:26:59.346Z,100288.44
2022-09-12T22:29:27.163Z,100289.81
2022-09-12T22:31:54.867Z,100289.53
2022-09-12T22:34:22.775Z,100292.56
2022-09-12T22:36:50.468Z,100285.66
2022-09-12T22:39:18.284Z,100281.25
2022-09-12T22:41:47.544Z,100276.97
2022-09-12T22:44:17.756Z,100273.25
2022-09-12T22:46:45.927Z,100273.78
2022-09-12T22:49:13.859Z,100272.81
2022-09-12T22:51:41.538Z,100271.72
2022-09-12T22:54:10.940Z,100269.09
2022-09-12T22:56:39.657Z,100270.63
2022-09-12T22:59:08.933Z,100275.72
2022-09-12T23:01:37.056Z,100271.03
2022-09-12T23:04:05.307Z,100280.94
2022-09-12T23:06:33.059Z,100284.25
2022-09-12T23:09:00.779Z,100284.53
2022-09-12T23:11:28.816Z,100288.41
2022-09-12T23:13:56.524Z,100284.53
2022-09-12T23:16:28.341Z,100285.22
2022-09-12T23:18:56.628Z,100284.53
2022-09-12T23:21:24.463Z,100284.84
2022-09-12T23:23:52.295Z,100279.28
2022-09-12T23:26:22.504Z,100281.50
2022-09-12T23:28:52.855Z,100279.16
2022-09-12T23:31:21.192Z,100281.34
2022-09-12T23:33:51.105Z,100275.09
2022-09-12T23:36:18.841Z,100266.97
2022-09-12T23:38:47.812Z,100263.53
2022-09-12T23:41:16.901Z,100260.91
2022-09-12T23:43:45.568Z,100264.91
2022-09-12T23:46:14.495Z,100270.41
2022-09-12T23:48:43.293Z,100270.91
2022-09-12T23:51:13.140Z,100261.41
2022-09-12T23:53:41.224Z,100265.34
2022-09-12T23:56:09.480Z,100283.09
2022-09-12T23:58:38.117Z,100285.28
